Aviation Digital Data Service (ADDS)

Output produced by METARs form (0816 UTC 28 July 2014)
found at http://aviationweather.gov/adds/metars/
 
KORH 280735Z 2808/2906 20005KT 1/4SM FG OVC002 
     FM280900 20006KT 1SM -SHRA BR OVC004 
     FM281200 16007KT 2SM -SHRA BR OVC008 
     FM281600 21011KT P6SM BKN025 
     FM281800 22011KT P6SM BKN050 
     FM290300 26010KT P6SM BKN015